createdAt,value
2023-04-23T00:00:12.226Z,94.04
2023-04-23T00:02:50.033Z,94.11
2023-04-23T00:05:17.837Z,94.45
2023-04-23T00:07:46.012Z,94.25
2023-04-23T00:10:13.786Z,93.92
2023-04-23T00:12:41.878Z,93.84
2023-04-23T00:15:10.032Z,93.80
2023-04-23T00:17:37.749Z,93.70
2023-04-23T00:20:06.555Z,93.88
2023-04-23T00:22:34.113Z,93.51
2023-04-23T00:25:01.559Z,93.37
2023-04-23T00:27:29.365Z,93.33
2023-04-23T00:29:56.855Z,93.34
2023-04-23T00:32:24.313Z,93.07
2023-04-23T00:34:51.979Z,92.94
2023-04-23T00:37:19.731Z,93.07
2023-04-23T00:39:47.230Z,92.97
2023-04-23T00:42:17.338Z,92.61
2023-04-23T00:44:44.842Z,92.79
2023-04-23T00:47:12.446Z,92.68
2023-04-23T00:49:39.917Z,92.56
2023-04-23T00:52:07.454Z,92.59
2023-04-23T00:54:34.981Z,92.59
2023-04-23T00:57:02.552Z,92.18
2023-04-23T00:59:30.183Z,92.44
2023-04-23T01:01:59.012Z,92.48
2023-04-23T01:04:27.994Z,92.61
2023-04-23T01:06:56.363Z,92.76
2023-04-23T01:09:23.960Z,92.39
2023-04-23T01:11:51.444Z,92.42
2023-04-23T01:14:18.920Z,92.40
2023-04-23T01:16:47.170Z,92.23
2023-04-23T01:19:16.267Z,92.64
2023-04-23T01:21:44.100Z,92.99
2023-04-23T01:24:11.741Z,93.37
2023-04-23T01:26:40.810Z,93.64
2023-04-23T01:29:09.960Z,93.15
2023-04-23T01:31:37.695Z,93.36
2023-04-23T01:34:05.405Z,93.16
2023-04-23T01:36:35.063Z,93.22
2023-04-23T01:39:03.376Z,93.13
2023-04-23T01:41:30.888Z,93.40
2023-04-23T01:43:58.695Z,93.54
2023-04-23T01:46:26.375Z,93.86
2023-04-23T01:48:53.908Z,94.00
2023-04-23T01:51:21.358Z,94.79
2023-04-23T01:53:48.863Z,100.00
2023-04-23T01:56:16.705Z,100.00
2023-04-23T01:58:44.335Z,100.00
2023-04-23T02:01:12.014Z,100.00
2023-04-23T02:03:39.761Z,100.00
2023-04-23T02:06:07.972Z,100.00
2023-04-23T02:08:36.354Z,100.00
2023-04-23T02:11:05.573Z,100.00
2023-04-23T02:13:33.370Z,100.00
2023-04-23T02:16:00.878Z,100.00
2023-04-23T02:18:30.719Z,100.00
2023-04-23T02:20:59.869Z,100.00
2023-04-23T02:23:29.213Z,100.00
2023-04-23T02:25:56.947Z,100.00
2023-04-23T02:28:24.735Z,100.00
2023-04-23T02:30:52.208Z,100.00
2023-04-23T02:33:21.610Z,100.00
2023-04-23T02:35:49.036Z,100.00
2023-04-23T02:38:16.892Z,100.00
2023-04-23T02:40:44.385Z,100.00
2023-04-23T02:43:11.921Z,99.59
2023-04-23T02:45:39.488Z,99.64
2023-04-23T02:48:07.198Z,100.00
2023-04-23T02:50:35.212Z,100.00
2023-04-23T02:53:02.850Z,100.00
2023-04-23T02:55:32.096Z,99.81
2023-04-23T02:58:00.108Z,100.00
2023-04-23T03:00:28.063Z,99.92
2023-04-23T03:02:55.841Z,100.00
2023-04-23T03:05:23.425Z,99.49
2023-04-23T03:07:50.952Z,98.07
2023-04-23T03:10:18.538Z,97.69
2023-04-23T03:12:46.480Z,97.28
2023-04-23T03:15:15.406Z,97.39
2023-04-23T03:17:43.972Z,97.64
2023-04-23T03:20:14.671Z,96.91
2023-04-23T03:22:43.167Z,96.44
2023-04-23T03:25:11.270Z,96.69
2023-04-23T03:27:40.625Z,96.58
2023-04-23T03:30:08.997Z,96.40
2023-04-23T03:32:36.606Z,95.98
2023-04-23T03:35:04.764Z,96.64
2023-04-23T03:37:33.440Z,96.47
2023-04-23T03:40:07.663Z,96.37
2023-04-23T03:42:38.921Z,95.58
2023-04-23T03:45:07.641Z,94.48
2023-04-23T03:47:35.358Z,91.25
2023-04-23T03:50:03.138Z,87.63
2023-04-23T03:52:31.257Z,84.11
2023-04-23T03:54:59.414Z,82.96
2023-04-23T03:57:32.817Z,82.70
2023-04-23T04:00:16.651Z,81.94
2023-04-23T04:02:44.976Z,80.81
2023-04-23T04:05:13.832Z,80.73
2023-04-23T04:07:41.537Z,79.85
2023-04-23T04:10:09.391Z,78.84
2023-04-23T04:12:37.260Z,76.56
2023-04-23T04:15:05.215Z,75.15
2023-04-23T04:17:32.782Z,74.71
2023-04-23T04:20:00.586Z,72.91
2023-04-23T04:22:29.498Z,72.39
2023-04-23T04:24:57.557Z,71.38
2023-04-23T04:27:25.184Z,69.03
2023-04-23T04:29:52.636Z,67.96
2023-04-23T04:32:20.191Z,66.27
2023-04-23T04:34:47.757Z,62.63
2023-04-23T04:37:15.442Z,65.12
2023-04-23T04:39:43.020Z,65.32
2023-04-23T04:42:13.186Z,64.53
2023-04-23T04:44:41.930Z,62.43
2023-04-23T04:47:11.044Z,62.11
2023-04-23T04:49:38.851Z,62.14
2023-04-23T04:52:07.014Z,62.67
2023-04-23T04:54:35.684Z,61.23
2023-04-23T04:57:03.840Z,60.58
2023-04-23T04:59:32.144Z,61.98
2023-04-23T05:02:00.228Z,59.51
2023-04-23T05:04:28.076Z,60.04
2023-04-23T05:06:56.585Z,58.67
2023-04-23T05:09:25.147Z,59.62
2023-04-23T05:11:52.928Z,60.99
2023-04-23T05:14:20.849Z,62.05
2023-04-23T05:16:48.917Z,62.96
2023-04-23T05:19:17.376Z,63.13
2023-04-23T05:21:45.918Z,63.75
2023-04-23T05:24:13.881Z,63.00
2023-04-23T05:26:41.716Z,62.68
2023-04-23T05:29:09.973Z,63.44
2023-04-23T05:31:37.468Z,63.97
2023-04-23T05:34:05.359Z,63.82
2023-04-23T05:36:32.921Z,63.92
2023-04-23T05:39:01.370Z,66.29
2023-04-23T05:41:29.814Z,67.32
2023-04-23T05:43:57.796Z,67.83
2023-04-23T05:46:26.711Z,68.17
2023-04-23T05:48:55.117Z,69.19
2023-04-23T05:51:23.368Z,70.03
2023-04-23T05:53:51.023Z,68.34
2023-04-23T05:56:18.825Z,67.79
2023-04-23T05:58:46.652Z,67.00
2023-04-23T06:01:14.171Z,67.08
2023-04-23T06:03:45.550Z,67.54
2023-04-23T06:06:14.315Z,66.66
2023-04-23T06:08:42.299Z,65.71
2023-04-23T06:11:09.864Z,65.66
2023-04-23T06:13:42.821Z,64.72
2023-04-23T06:16:11.216Z,66.19
2023-04-23T06:18:39.317Z,64.43
2023-04-23T06:21:07.042Z,63.79
2023-04-23T06:23:35.698Z,64.13
2023-04-23T06:26:04.391Z,61.49
2023-04-23T06:28:32.022Z,58.93
2023-04-23T06:31:34.987Z,60.17
2023-04-23T06:34:02.543Z,59.70
2023-04-23T06:36:30.137Z,58.85
2023-04-23T06:38:57.641Z,58.01
2023-04-23T06:41:25.247Z,59.08
2023-04-23T06:44:04.779Z,59.22
2023-04-23T06:46:36.509Z,58.52
2023-04-23T06:49:04.221Z,57.57
2023-04-23T06:51:32.332Z,58.25
2023-04-23T06:54:00.075Z,57.58
2023-04-23T06:56:27.701Z,57.19
2023-04-23T06:58:55.189Z,55.24
2023-04-23T07:01:23.005Z,55.33
2023-04-23T07:03:54.508Z,55.59
2023-04-23T07:06:22.283Z,53.88
2023-04-23T07:08:49.928Z,52.46
2023-04-23T07:11:17.527Z,51.36
2023-04-23T07:13:44.971Z,51.81
2023-04-23T07:16:12.690Z,54.47
2023-04-23T07:18:40.249Z,53.89
2023-04-23T07:21:08.308Z,53.39
2023-04-23T07:23:35.912Z,53.48
2023-04-23T07:26:03.948Z,52.60
2023-04-23T07:28:32.274Z,53.79
2023-04-23T07:30:59.768Z,54.28
2023-04-23T07:33:27.550Z,52.37
2023-04-23T07:35:54.968Z,48.33
2023-04-23T07:38:22.389Z,51.70
2023-04-23T07:40:49.836Z,48.63
2023-04-23T07:43:17.656Z,48.93
2023-04-23T07:45:45.331Z,50.32
2023-04-23T07:48:12.846Z,50.44
2023-04-23T07:50:41.084Z,47.31
2023-04-23T07:53:08.540Z,48.00
2023-04-23T07:55:36.750Z,46.35
2023-04-23T07:58:04.719Z,45.31
2023-04-23T08:00:33.355Z,45.90
2023-04-23T08:03:01.017Z,45.47
2023-04-23T08:05:28.654Z,45.97
2023-04-23T08:07:56.257Z,48.00
2023-04-23T08:10:23.768Z,45.88
2023-04-23T08:12:51.366Z,45.87
2023-04-23T08:15:18.863Z,44.72
2023-04-23T08:17:46.405Z,43.39
2023-04-23T08:20:13.956Z,42.97
2023-04-23T08:22:41.488Z,41.69
2023-04-23T08:25:09.577Z,42.98
2023-04-23T08:27:37.095Z,43.56
2023-04-23T08:30:06.913Z,41.71
2023-04-23T08:32:34.905Z,40.71
2023-04-23T08:35:03.037Z,42.04
2023-04-23T08:37:31.726Z,41.46
2023-04-23T08:39:59.431Z,41.64
2023-04-23T08:42:53.526Z,40.83
2023-04-23T08:45:21.946Z,41.76
2023-04-23T08:47:49.440Z,42.36
2023-04-23T08:50:18.185Z,41.97
2023-04-23T08:52:55.884Z,42.53
2023-04-23T08:55:23.702Z,40.04
2023-04-23T08:57:51.319Z,40.61
2023-04-23T09:00:19.873Z,42.68
2023-04-23T09:02:48.464Z,40.88
2023-04-23T09:05:16.124Z,41.03
2023-04-23T09:07:43.858Z,37.74
2023-04-23T09:10:14.066Z,39.18
2023-04-23T09:12:43.544Z,39.20
2023-04-23T09:15:12.003Z,40.18
2023-04-23T09:17:46.471Z,40.02
2023-04-23T09:20:14.609Z,40.19
2023-04-23T09:22:47.591Z,39.36
2023-04-23T09:25:17.983Z,40.11
2023-04-23T09:27:46.845Z,41.27
2023-04-23T09:30:14.910Z,37.76
2023-04-23T09:32:43.551Z,38.96
2023-04-23T09:35:15.721Z,39.54
2023-04-23T09:37:52.541Z,40.22
2023-04-23T09:40:22.863Z,39.70
2023-04-23T09:42:52.739Z,38.05
2023-04-23T09:45:20.834Z,37.61
2023-04-23T09:47:53.907Z,38.45
2023-04-23T09:50:38.502Z,37.97
2023-04-23T09:53:07.280Z,38.87
2023-04-23T09:55:39.493Z,39.45
2023-04-23T09:58:11.218Z,40.78
2023-04-23T10:00:39.338Z,40.50
2023-04-23T10:03:07.935Z,39.70
2023-04-23T10:08:14.048Z,39.82
2023-04-23T10:10:54.574Z,38.72
2023-04-23T10:13:28.028Z,40.48
2023-04-23T10:15:59.078Z,38.82
2023-04-23T10:18:32.457Z,38.17
2023-04-23T10:21:00.597Z,39.23
2023-04-23T10:23:28.152Z,37.85
2023-04-23T10:25:56.790Z,37.30
2023-04-23T10:28:29.176Z,37.28
2023-04-23T10:30:57.232Z,38.17
2023-04-23T10:35:57.046Z,38.77
2023-04-23T10:38:24.953Z,38.28
2023-04-23T10:40:52.448Z,37.70
2023-04-23T10:43:20.131Z,39.13
2023-04-23T10:45:47.614Z,38.65
2023-04-23T10:48:15.341Z,39.21
2023-04-23T10:51:02.492Z,37.81
2023-04-23T10:53:32.521Z,37.99
2023-04-23T10:56:07.788Z,38.35
2023-04-23T10:58:50.073Z,37.34
2023-04-23T11:01:18.314Z,40.40
2023-04-23T11:03:46.000Z,40.11
2023-04-23T11:06:15.831Z,38.37
2023-04-23T11:08:56.942Z,39.96
2023-04-23T11:11:41.441Z,39.99
2023-04-23T11:14:14.498Z,39.49
2023-04-23T11:16:42.104Z,40.50
2023-04-23T11:19:12.526Z,39.64
2023-04-23T11:22:02.915Z,39.37
2023-04-23T11:24:42.043Z,38.75
2023-04-23T11:27:11.729Z,39.48
2023-04-23T11:29:40.761Z,39.96
2023-04-23T11:32:13.126Z,40.46
2023-04-23T11:34:43.377Z,42.01
2023-04-23T11:37:11.752Z,39.95
2023-04-23T11:39:41.580Z,40.34
2023-04-23T11:42:16.110Z,40.63
2023-04-23T11:44:44.512Z,40.40
2023-04-23T11:47:16.561Z,40.39
2023-04-23T11:49:44.824Z,40.73
2023-04-23T11:52:12.855Z,39.59
2023-04-23T11:54:41.229Z,38.78
2023-04-23T11:57:08.707Z,38.28
2023-04-23T11:59:36.328Z,37.36
2023-04-23T12:02:03.934Z,38.23
2023-04-23T12:04:31.981Z,37.88
2023-04-23T12:06:59.669Z,38.33
2023-04-23T12:09:28.642Z,38.89
2023-04-23T12:11:58.401Z,39.54
2023-04-23T12:14:30.652Z,40.68
2023-04-23T12:16:59.012Z,44.58
2023-04-23T12:19:28.634Z,46.83
2023-04-23T12:22:00.589Z,48.29
2023-04-23T12:24:32.247Z,49.55
2023-04-23T12:27:01.096Z,53.67
2023-04-23T12:29:32.009Z,61.56
2023-04-23T12:32:00.923Z,64.50
2023-04-23T12:34:28.668Z,66.91
2023-04-23T12:36:57.607Z,68.16
2023-04-23T12:39:32.120Z,69.50
2023-04-23T12:42:05.285Z,72.48
2023-04-23T12:44:36.871Z,71.90
2023-04-23T12:47:05.188Z,72.62
2023-04-23T12:49:33.216Z,74.65
2023-04-23T12:52:01.684Z,75.64
2023-04-23T12:54:32.110Z,79.36
2023-04-23T12:57:03.089Z,80.50
2023-04-23T12:59:31.125Z,81.67
2023-04-23T13:02:03.063Z,80.66
2023-04-23T13:04:35.873Z,81.07
2023-04-23T13:07:03.484Z,82.42
2023-04-23T13:09:31.019Z,82.02
2023-04-23T13:12:00.329Z,84.74
2023-04-23T13:14:28.490Z,83.43
2023-04-23T13:16:58.050Z,82.54
2023-04-23T13:19:25.813Z,83.37
2023-04-23T13:21:53.879Z,83.19
2023-04-23T13:24:21.878Z,84.15
2023-04-23T13:26:49.998Z,83.74
2023-04-23T13:29:17.646Z,82.38
2023-04-23T13:31:45.259Z,80.62
2023-04-23T13:34:12.851Z,80.06
2023-04-23T13:36:41.695Z,81.29
2023-04-23T13:39:10.159Z,79.49
2023-04-23T13:41:37.839Z,79.09
2023-04-23T13:44:05.542Z,78.79
2023-04-23T13:46:33.234Z,78.31
2023-04-23T13:49:01.444Z,76.91
2023-04-23T13:51:35.408Z,75.50
2023-04-23T13:54:04.375Z,74.89
2023-04-23T13:56:32.455Z,74.21
2023-04-23T13:59:18.296Z,75.93
2023-04-23T14:01:50.355Z,74.46
2023-04-23T14:04:18.932Z,73.95
2023-04-23T14:06:47.156Z,73.70
2023-04-23T14:09:15.346Z,72.12
2023-04-23T14:11:43.128Z,71.09
2023-04-23T14:14:11.589Z,70.03
2023-04-23T14:16:39.841Z,69.62
2023-04-23T14:19:09.237Z,69.20
2023-04-23T14:21:37.766Z,68.63
2023-04-23T14:24:12.175Z,70.76
2023-04-23T14:26:49.375Z,69.93
2023-04-23T14:29:22.785Z,67.99
2023-04-23T14:31:53.212Z,67.68
2023-04-23T14:34:21.681Z,67.19
2023-04-23T14:36:49.646Z,66.26
2023-04-23T14:39:17.835Z,66.55
2023-04-23T14:41:46.183Z,66.04
2023-04-23T14:44:13.989Z,66.56
2023-04-23T14:46:41.962Z,65.81
2023-04-23T14:49:10.127Z,65.86
2023-04-23T14:51:38.041Z,65.31
2023-04-23T14:54:06.594Z,65.11
2023-04-23T14:56:34.984Z,65.11
2023-04-23T14:59:03.951Z,65.23
2023-04-23T15:01:32.863Z,65.21
2023-04-23T15:04:01.263Z,64.90
2023-04-23T15:06:29.432Z,63.80
2023-04-23T15:08:57.475Z,63.33
2023-04-23T15:11:25.711Z,63.03
2023-04-23T15:14:06.375Z,63.06
2023-04-23T15:16:47.466Z,63.57
2023-04-23T15:19:18.529Z,63.77
2023-04-23T15:21:48.569Z,63.72
2023-04-23T15:24:16.761Z,63.58
2023-04-23T15:26:46.159Z,63.50
2023-04-23T15:29:14.891Z,63.37
2023-04-23T15:31:43.462Z,63.05
2023-04-23T15:34:12.467Z,63.53
2023-04-23T15:36:41.570Z,63.09
2023-04-23T15:39:13.234Z,62.85
2023-04-23T15:41:44.795Z,62.99
2023-04-23T15:44:14.254Z,62.96
2023-04-23T15:46:44.879Z,63.54
2023-04-23T15:49:12.885Z,63.79
2023-04-23T15:51:41.655Z,63.41
2023-04-23T15:54:09.444Z,63.71
2023-04-23T15:56:37.504Z,64.49
2023-04-23T15:59:06.568Z,66.34
2023-04-23T16:01:35.011Z,67.11
2023-04-23T16:06:33.573Z,66.37
2023-04-23T16:09:02.607Z,66.18
2023-04-23T16:11:30.464Z,66.44
2023-04-23T16:13:58.888Z,67.12
2023-04-23T16:16:27.668Z,66.63
2023-04-23T16:18:57.822Z,68.18
2023-04-23T16:21:28.219Z,67.91
2023-04-23T16:23:56.475Z,68.01
2023-04-23T16:26:24.773Z,69.52
2023-04-23T16:29:05.555Z,69.90
2023-04-23T16:31:40.206Z,69.98
2023-04-23T16:34:08.312Z,70.85
2023-04-23T16:36:36.781Z,71.90
2023-04-23T16:39:04.766Z,73.10
2023-04-23T16:41:33.283Z,74.07
2023-04-23T16:44:01.075Z,74.82
2023-04-23T16:46:31.462Z,75.60
2023-04-23T16:49:02.834Z,76.42
2023-04-23T16:51:32.855Z,76.37
2023-04-23T16:54:00.584Z,76.69
2023-04-23T16:56:28.368Z,76.74
2023-04-23T16:58:56.455Z,77.18
2023-04-23T17:01:24.057Z,77.33
2023-04-23T17:03:51.731Z,77.81
2023-04-23T17:06:29.574Z,77.81
2023-04-23T17:08:58.612Z,79.35
2023-04-23T17:11:27.860Z,79.08
2023-04-23T17:13:56.225Z,79.85
2023-04-23T17:16:26.771Z,79.74
2023-04-23T17:18:55.029Z,80.03
2023-04-23T17:21:23.080Z,79.76
2023-04-23T17:23:51.538Z,80.16
2023-04-23T17:26:20.436Z,80.38
2023-04-23T17:28:48.972Z,80.68
2023-04-23T17:31:16.925Z,81.16
2023-04-23T17:33:45.912Z,81.24
2023-04-23T17:36:13.409Z,81.15
2023-04-23T17:38:41.376Z,81.46
2023-04-23T17:41:08.868Z,81.41
2023-04-23T17:43:36.670Z,82.84
2023-04-23T17:46:04.431Z,89.78
2023-04-23T17:48:32.209Z,87.67
2023-04-23T17:50:59.764Z,85.78
2023-04-23T17:53:27.245Z,84.72
2023-04-23T17:55:59.559Z,84.21
2023-04-23T17:58:27.445Z,83.88
2023-04-23T18:00:54.988Z,83.74
2023-04-23T18:03:23.524Z,83.59
2023-04-23T18:05:51.715Z,83.69
2023-04-23T18:08:21.391Z,83.53
2023-04-23T18:10:49.275Z,83.33
2023-04-23T18:13:17.208Z,83.35
2023-04-23T18:15:49.757Z,83.66
2023-04-23T18:18:17.939Z,84.08
2023-04-23T18:20:46.367Z,84.05
2023-04-23T18:23:14.496Z,84.40
2023-04-23T18:25:42.158Z,84.89
2023-04-23T18:28:09.757Z,84.71
2023-04-23T18:30:38.228Z,84.99
2023-04-23T18:33:19.572Z,85.03
2023-04-23T18:35:52.534Z,85.00
2023-04-23T18:38:25.354Z,85.10
2023-04-23T18:40:53.098Z,85.21
2023-04-23T18:43:20.848Z,85.32
2023-04-23T18:45:48.349Z,85.51
2023-04-23T18:48:45.749Z,85.62
2023-04-23T18:51:33.307Z,85.50
2023-04-23T18:54:01.778Z,85.61
2023-04-23T18:56:29.570Z,85.79
2023-04-23T18:58:57.121Z,85.73
2023-04-23T19:01:24.634Z,86.26
2023-04-23T19:03:52.303Z,86.46
2023-04-23T19:06:19.878Z,86.79
2023-04-23T19:08:47.469Z,86.53
2023-04-23T19:11:15.099Z,86.27
2023-04-23T19:13:42.670Z,86.07
2023-04-23T19:16:10.411Z,86.17
2023-04-23T19:18:38.064Z,86.12
2023-04-23T19:21:05.554Z,86.14
2023-04-23T19:23:33.175Z,86.20
2023-04-23T19:26:00.773Z,86.44
2023-04-23T19:28:28.269Z,86.52
2023-04-23T19:30:55.757Z,86.96
2023-04-23T19:33:23.871Z,87.20
2023-04-23T19:35:52.447Z,87.22
2023-04-23T19:38:20.210Z,87.38
2023-04-23T19:40:47.681Z,87.33
2023-04-23T19:43:15.422Z,87.11
2023-04-23T19:45:43.125Z,87.12
2023-04-23T19:48:10.736Z,86.95
2023-04-23T19:50:38.433Z,87.01
2023-04-23T19:53:08.172Z,87.19
2023-04-23T19:55:36.021Z,87.25
2023-04-23T19:58:06.687Z,87.26
2023-04-23T20:00:39.999Z,87.42
2023-04-23T20:03:08.676Z,87.65
2023-04-23T20:05:36.382Z,87.69
2023-04-23T20:08:11.235Z,87.59
2023-04-23T20:10:40.762Z,87.41
2023-04-23T20:13:08.556Z,87.70
2023-04-23T20:15:37.219Z,88.07
2023-04-23T20:18:05.199Z,88.56
2023-04-23T20:20:34.233Z,88.12
2023-04-23T20:23:02.172Z,88.27
2023-04-23T20:25:29.969Z,89.22
2023-04-23T20:27:58.052Z,88.58
2023-04-23T20:30:26.230Z,88.37
2023-04-23T20:32:54.813Z,88.05
2023-04-23T20:35:22.544Z,88.20
2023-04-23T20:37:52.289Z,88.36
2023-04-23T20:40:21.688Z,88.33
2023-04-23T20:42:52.143Z,88.66
2023-04-23T20:45:20.851Z,88.78
2023-04-23T20:47:49.209Z,88.78
2023-04-23T20:50:17.487Z,89.24
2023-04-23T20:52:45.271Z,89.18
2023-04-23T20:55:13.861Z,89.23
2023-04-23T20:57:41.780Z,88.88
2023-04-23T21:00:12.042Z,88.83
2023-04-23T21:02:40.855Z,88.71
2023-04-23T21:05:11.145Z,88.92
2023-04-23T21:07:39.998Z,88.83
2023-04-23T21:10:08.155Z,88.71
2023-04-23T21:12:36.538Z,88.88
2023-04-23T21:15:04.983Z,90.04
2023-04-23T21:17:33.317Z,91.02
2023-04-23T21:20:01.583Z,91.88
2023-04-23T21:22:30.232Z,90.73
2023-04-23T21:24:59.196Z,90.43
2023-04-23T21:27:27.335Z,89.81
2023-04-23T21:29:55.054Z,89.80
2023-04-23T21:32:23.047Z,89.78
2023-04-23T21:34:51.256Z,90.08
2023-04-23T21:37:19.470Z,91.14
2023-04-23T21:39:47.244Z,92.08
2023-04-23T21:42:15.032Z,92.45
2023-04-23T21:44:42.849Z,93.45
2023-04-23T21:47:11.233Z,93.16
2023-04-23T21:49:39.757Z,92.33
2023-04-23T21:52:09.256Z,92.21
2023-04-23T21:54:37.097Z,92.53
2023-04-23T21:57:05.021Z,93.06
2023-04-23T21:59:32.822Z,92.63
2023-04-23T22:02:01.034Z,92.62
2023-04-23T22:04:29.578Z,92.76
2023-04-23T22:07:03.679Z,94.40
2023-04-23T22:09:33.654Z,93.61
2023-04-23T22:12:03.072Z,94.15
2023-04-23T22:14:31.350Z,93.65
2023-04-23T22:16:59.504Z,93.04
2023-04-23T22:19:27.852Z,92.71
2023-04-23T22:21:55.798Z,92.54
2023-04-23T22:24:24.391Z,91.91
2023-04-23T22:26:52.374Z,91.44
2023-04-23T22:29:20.404Z,91.32
2023-04-23T22:31:48.916Z,91.21
2023-04-23T22:34:16.795Z,91.23
2023-04-23T22:36:44.484Z,91.59
2023-04-23T22:39:13.247Z,91.85
2023-04-23T22:41:41.104Z,92.18
2023-04-23T22:44:09.624Z,94.10
2023-04-23T22:46:37.603Z,92.90
2023-04-23T22:49:08.541Z,93.14
2023-04-23T22:51:39.042Z,92.81
2023-04-23T22:54:06.888Z,92.31
2023-04-23T22:56:37.847Z,91.93
2023-04-23T22:59:06.031Z,91.44
2023-04-23T23:01:35.734Z,91.63
2023-04-23T23:04:04.564Z,91.68
2023-04-23T23:06:33.335Z,91.72
2023-04-23T23:09:01.012Z,91.68
2023-04-23T23:11:29.521Z,91.68
2023-04-23T23:13:57.593Z,91.41
2023-04-23T23:16:25.834Z,91.32
2023-04-23T23:18:53.986Z,91.30
2023-04-23T23:21:22.485Z,90.91
2023-04-23T23:23:50.261Z,90.83
2023-04-23T23:26:18.434Z,90.88
2023-04-23T23:28:46.819Z,90.98
2023-04-23T23:31:17.842Z,91.14
2023-04-23T23:33:46.549Z,90.46
2023-04-23T23:36:14.815Z,90.08
2023-04-23T23:38:42.494Z,90.22
2023-04-23T23:41:10.323Z,89.99
2023-04-23T23:43:38.390Z,89.90
2023-04-23T23:46:08.150Z,90.39
2023-04-23T23:48:36.602Z,90.32
2023-04-23T23:51:05.814Z,90.32
2023-04-23T23:53:33.544Z,89.94
2023-04-23T23:56:01.458Z,90.17
2023-04-23T23:58:29.700Z,89.84
